Portada
METAR-TAF:

METAR-TAF

Aeroports :

Bamako, Mali

latitud: 12-32N, longitud: 007-57W, altitud: 380 m

Observació

L'informe es va fer fa 50 minuts, a les 23:30 UTC
Vent 7 kt del Est/Nord-Est
Temperatura 25°C
Humitat 39%
Pressió 1015 hPa
Visibilitat: 8000 m

METAR: GABS 212330Z 06007KT 8000 NSC 25/10 Q1015 NOSIG

Hora: 00:20 (00:20 UTC)

Pronòstic

L'informe es va fer fa 40 minuts, a les 23:40 UTC
Pronòstic vàlid del 22 a les 00 UTC al 23 a les 06 UTC
Vent 6 kt del Nord-Est
Visibilitat: 8000 m

TAF: GABS 212340Z 2200/2306 04006KT 8000 NSC

Observacions i pronòstics meteorològics de més de 4000 aeroports (METAR i TAF).

Les estacions disponibles són els punts grocs i vermells al mapa.

Posi el ratolí al punt desitjat per veure el nom de l'estació.

Feu clic per veure les observacions i els pronòstics meteorològics.

Per canviar el mapa: feu clic els botons verds amb una creu de color negre per apropar; al botó verd amb un guió per allunyar la imatge; o en les fletxes verdes per a mapes adjacents.


METAR-TAF: